Terminal Aerodrome Forecast
Issued by NWS Brownsville, TX

Current Version | Previous Version | Text Only | Print | Product List | Glossary Off
Versions: 1 2 3 4 5 6 7 8 9 10 11 12 13 14

000
FTUS44 KBRO 280500
TAFMFE
TAF
KMFE 280520Z 2806/2906 15003KT P6SM SKC
      TEMPO 2809/2813 3SM BR
     FM281500 17007KT P6SM SKC
     FM281700 15013KT P6SM FEW050=

USA.gov is the U.S. government's official web portal to all federal, state and local government web resources and services.